Time;durP1;ratioP1;P1;durP2;ratioP2;P2;SDS_P1;SDS_P2;PMS_P1;PMS_P2;Temp;Humidity;BMP_temperature;BMP_pressure;BME280_temperature;BME280_humidity;BME280_pressure;Samples;Min_cycle;Max_cycle;Signal;HPM_P1;HPM_P2
2021/03/16 00:01:04;;;;;;;5.00;4.50;;;;;;;;;;5012040;28;20993;-84
2021/03/16 00:03:30;;;;;;;5.70;4.55;;;;;;;;;;5029517;28;20374;-84
2021/03/16 00:05:56;;;;;;;5.50;5.10;;;;;;;;;;5029837;28;20386;-86
2021/03/16 00:08:23;;;;;;;8.32;5.93;;;;;;;;;;5030122;28;20451;-88
2021/03/16 00:10:49;;;;;;;7.90;6.82;;;;;;;;;;5029603;28;20389;-85
2021/03/16 00:13:15;;;;;;;8.40;7.38;;;;;;;;;;5030171;28;20380;-86
2021/03/16 00:15:41;;;;;;;7.70;6.70;;;;;;;;;;5012200;28;20378;-83
2021/03/16 00:18:15;;;;;;;11.57;8.45;;;;;;;;;;5012285;28;20435;-84
2021/03/16 00:35:58;;;;;;;10.50;9.27;;;;;;;;;;5029991;28;20396;-83
2021/03/16 00:38:24;;;;;;;12.40;9.80;;;;;;;;;;5012213;28;20393;-85
2021/03/16 00:40:50;;;;;;;14.80;9.63;;;;;;;;;;5011903;28;20451;-85
2021/03/16 00:43:17;;;;;;;11.02;9.93;;;;;;;;;;5012311;28;20794;-82
2021/03/16 00:45:43;;;;;;;11.55;9.50;;;;;;;;;;5029576;28;20504;-85
2021/03/16 00:48:14;;;;;;;12.52;9.00;;;;;;;;;;5012025;28;20920;-83
2021/03/16 00:50:40;;;;;;;13.20;8.32;;;;;;;;;;5011377;28;20386;-88
2021/03/16 00:53:06;;;;;;;11.18;8.30;;;;;;;;;;5029382;28;20405;-84
2021/03/16 00:55:32;;;;;;;9.23;7.47;;;;;;;;;;5029638;28;20378;-86
2021/03/16 00:57:58;;;;;;;8.60;7.07;;;;;;;;;;5033637;28;20377;-85
2021/03/16 01:00:24;;;;;;;9.82;7.13;;;;;;;;;;5015567;28;20392;-83
2021/03/16 01:02:50;;;;;;;8.07;6.97;;;;;;;;;;5015368;28;20381;-86
2021/03/16 01:05:16;;;;;;;9.15;6.57;;;;;;;;;;5015505;28;20440;-83
2021/03/16 01:07:42;;;;;;;8.70;6.72;;;;;;;;;;5032917;28;20469;-87
2021/03/16 01:10:14;;;;;;;7.82;5.97;;;;;;;;;;5032980;28;20743;-84
2021/03/16 01:12:40;;;;;;;7.05;5.50;;;;;;;;;;5015510;28;20453;-85
2021/03/16 01:15:07;;;;;;;6.88;5.90;;;;;;;;;;5015601;28;20895;-86
2021/03/16 01:17:33;;;;;;;6.60;5.63;;;;;;;;;;5032963;28;20373;-84
2021/03/16 01:19:59;;;;;;;7.90;5.97;;;;;;;;;;5032945;28;20381;-85
2021/03/16 01:22:25;;;;;;;6.35;5.28;;;;;;;;;;5032905;28;20370;-85
2021/03/16 01:24:51;;;;;;;7.05;6.00;;;;;;;;;;5032831;28;20921;-85
2021/03/16 01:27:17;;;;;;;6.20;5.47;;;;;;;;;;5015129;28;20389;-84
2021/03/16 01:29:43;;;;;;;6.00;5.15;;;;;;;;;;5015214;28;20872;-86
2021/03/16 01:32:09;;;;;;;6.63;5.50;;;;;;;;;;5014989;28;21055;-85
2021/03/16 01:34:34;;;;;;;7.85;4.68;;;;;;;;;;5015354;28;20384;-82
2021/03/16 01:37:00;;;;;;;6.73;5.33;;;;;;;;;;5014873;28;20964;-85
2021/03/16 01:39:26;;;;;;;6.28;5.22;;;;;;;;;;5032668;28;20798;-85
2021/03/16 01:41:52;;;;;;;6.40;4.88;;;;;;;;;;5032442;28;20377;-84
2021/03/16 01:44:18;;;;;;;6.90;4.97;;;;;;;;;;5032792;28;20426;-83
2021/03/16 01:46:44;;;;;;;5.07;4.60;;;;;;;;;;5032586;28;20377;-87
2021/03/16 01:49:11;;;;;;;7.15;4.70;;;;;;;;;;5032700;28;20502;-87
2021/03/16 01:51:37;;;;;;;4.45;4.05;;;;;;;;;;5014991;28;20421;-84
2021/03/16 01:54:05;;;;;;;4.43;4.03;;;;;;;;;;5032721;28;20381;-86
2021/03/16 01:56:31;;;;;;;4.65;4.03;;;;;;;;;;5014612;28;20381;-86
2021/03/16 01:58:57;;;;;;;6.00;4.30;;;;;;;;;;5032260;28;20481;-83
2021/03/16 02:01:23;;;;;;;6.47;4.43;;;;;;;;;;5032306;28;20381;-84
2021/03/16 02:03:52;;;;;;;4.63;4.00;;;;;;;;;;5014127;28;20818;-83
2021/03/16 02:06:21;;;;;;;6.65;4.15;;;;;;;;;;5032066;28;20381;-83
2021/03/16 02:09:07;;;;;;;4.30;3.88;;;;;;;;;;5013924;28;21155;-84
2021/03/16 02:11:33;;;;;;;4.63;3.83;;;;;;;;;;5013955;28;20465;-87
2021/03/16 02:14:03;;;;;;;7.22;4.07;;;;;;;;;;5014135;28;20479;-84
2021/03/16 02:16:53;;;;;;;7.45;4.40;;;;;;;;;;5031945;28;20477;-85
2021/03/16 02:19:37;;;;;;;4.75;4.00;;;;;;;;;;5031780;28;20393;-83
2021/03/16 02:22:03;;;;;;;4.85;4.10;;;;;;;;;;5031481;28;20424;-87
2021/03/16 02:24:39;;;;;;;5.60;4.25;;;;;;;;;;5031685;28;20395;-83
2021/03/16 02:27:16;;;;;;;4.97;4.18;;;;;;;;;;5013799;28;20388;-84
2021/03/16 02:29:43;;;;;;;5.10;4.07;;;;;;;;;;5013833;28;20381;-83
2021/03/16 02:32:11;;;;;;;5.85;4.40;;;;;;;;;;5013807;28;20740;-85
2021/03/16 02:34:39;;;;;;;6.43;4.72;;;;;;;;;;5031665;28;20438;-86
2021/03/16 02:37:06;;;;;;;5.45;4.70;;;;;;;;;;5013966;28;20369;-86
2021/03/16 02:39:32;;;;;;;6.47;4.07;;;;;;;;;;5014003;28;20392;-83
2021/03/16 02:41:59;;;;;;;6.97;4.40;;;;;;;;;;5013868;28;20396;-85
2021/03/16 02:44:26;;;;;;;5.07;4.20;;;;;;;;;;5031436;28;20377;-84
2021/03/16 02:46:52;;;;;;;7.72;4.65;;;;;;;;;;5031167;28;20385;-83
2021/03/16 02:49:19;;;;;;;7.60;4.55;;;;;;;;;;5031340;28;20476;-86
2021/03/16 02:51:46;;;;;;;6.95;4.75;;;;;;;;;;5031011;28;20409;-87
2021/03/16 02:54:13;;;;;;;7.90;4.80;;;;;;;;;;5013630;28;20468;-85
2021/03/16 02:56:40;;;;;;;6.93;4.28;;;;;;;;;;5013166;28;20725;-85
2021/03/16 02:59:07;;;;;;;7.32;4.70;;;;;;;;;;5031308;28;20460;-82
2021/03/16 03:01:37;;;;;;;6.15;4.10;;;;;;;;;;5013277;28;20890;-86
2021/03/16 03:04:06;;;;;;;9.13;4.68;;;;;;;;;;5013171;28;20879;-84
2021/03/16 03:06:33;;;;;;;6.05;3.95;;;;;;;;;;5013348;28;20538;-83
2021/03/16 03:09:01;;;;;;;7.93;4.47;;;;;;;;;;5013078;28;20794;-85
2021/03/16 03:11:27;;;;;;;7.97;4.15;;;;;;;;;;5030730;28;20392;-84
2021/03/16 03:13:53;;;;;;;7.28;4.22;;;;;;;;;;5013098;28;20386;-84
2021/03/16 03:16:19;;;;;;;6.38;3.80;;;;;;;;;;5013205;28;20444;-83
2021/03/16 03:18:45;;;;;;;5.88;3.95;;;;;;;;;;5012561;28;20466;-85
2021/03/16 03:21:13;;;;;;;6.90;4.07;;;;;;;;;;5013217;28;20382;-84
2021/03/16 03:23:44;;;;;;;6.93;3.88;;;;;;;;;;5013093;28;20393;-85
2021/03/16 03:26:14;;;;;;;5.45;3.75;;;;;;;;;;5013085;28;20398;-84
2021/03/16 03:28:41;;;;;;;8.35;4.07;;;;;;;;;;5013148;28;20491;-85
2021/03/16 03:31:07;;;;;;;6.47;3.97;;;;;;;;;;5012909;28;20432;-86
2021/03/16 03:33:35;;;;;;;6.93;3.88;;;;;;;;;;5013035;28;20369;-83
2021/03/16 03:36:02;;;;;;;8.50;4.00;;;;;;;;;;5030521;28;20769;-83
2021/03/16 03:38:29;;;;;;;8.30;4.50;;;;;;;;;;5030315;28;20385;-83
2021/03/16 03:40:55;;;;;;;6.25;4.30;;;;;;;;;;5030389;28;20894;-86
2021/03/16 03:43:23;;;;;;;7.35;4.10;;;;;;;;;;5012896;28;20369;-87
2021/03/16 03:45:51;;;;;;;8.57;4.10;;;;;;;;;;5012779;28;20425;-83
2021/03/16 03:48:18;;;;;;;6.43;4.20;;;;;;;;;;5013054;28;20405;-84
2021/03/16 03:50:45;;;;;;;7.20;4.25;;;;;;;;;;5012671;28;20763;-87
2021/03/16 03:53:11;;;;;;;5.03;4.00;;;;;;;;;;5012986;28;20481;-86
2021/03/16 03:55:38;;;;;;;6.22;4.05;;;;;;;;;;5012790;28;20389;-86
2021/03/16 03:58:04;;;;;;;6.88;4.30;;;;;;;;;;5030324;28;20401;-83
2021/03/16 04:00:31;;;;;;;6.57;4.32;;;;;;;;;;5012670;28;20389;-85
2021/03/16 04:02:59;;;;;;;8.77;4.65;;;;;;;;;;5030361;28;20373;-86
2021/03/16 04:05:25;;;;;;;7.13;4.30;;;;;;;;;;5012645;28;20393;-85
2021/03/16 04:07:51;;;;;;;6.18;3.80;;;;;;;;;;5012421;28;20405;-84
2021/03/16 04:10:18;;;;;;;8.43;4.63;;;;;;;;;;5012114;28;20382;-83
2021/03/16 04:12:44;;;;;;;5.75;3.90;;;;;;;;;;5012330;28;20377;-85
2021/03/16 04:15:11;;;;;;;7.10;4.18;;;;;;;;;;5029838;28;20902;-84
2021/03/16 04:17:37;;;;;;;7.30;3.73;;;;;;;;;;5030122;28;20848;-84
2021/03/16 04:20:05;;;;;;;6.85;3.92;;;;;;;;;;5012257;28;20404;-84
2021/03/16 04:22:31;;;;;;;9.00;4.37;;;;;;;;;;5011957;28;20404;-86
2021/03/16 04:24:57;;;;;;;5.90;3.88;;;;;;;;;;5029809;28;20967;-84
2021/03/16 04:27:23;;;;;;;6.60;3.90;;;;;;;;;;5012186;28;20441;-84
2021/03/16 04:29:49;;;;;;;6.68;3.80;;;;;;;;;;5012294;28;20717;-85
2021/03/16 04:32:15;;;;;;;7.47;3.85;;;;;;;;;;5034015;28;20431;-86
2021/03/16 04:34:41;;;;;;;6.97;4.32;;;;;;;;;;5016111;28;20382;-87
2021/03/16 04:37:07;;;;;;;6.20;4.05;;;;;;;;;;5016073;28;20370;-85
2021/03/16 04:39:33;;;;;;;5.85;3.85;;;;;;;;;;5033863;28;20800;-85
2021/03/16 04:41:59;;;;;;;8.23;4.50;;;;;;;;;;5015880;28;20405;-86
2021/03/16 04:44:25;;;;;;;8.52;4.55;;;;;;;;;;5033754;28;20472;-86
2021/03/16 04:46:51;;;;;;;7.82;4.15;;;;;;;;;;5033566;28;20852;-88
2021/03/16 04:49:17;;;;;;;7.82;4.10;;;;;;;;;;5033970;28;20405;-84
2021/03/16 04:51:43;;;;;;;9.05;4.32;;;;;;;;;;5015757;28;20385;-85
2021/03/16 04:54:09;;;;;;;8.05;4.18;;;;;;;;;;5033754;28;20853;-83
2021/03/16 04:56:35;;;;;;;8.38;4.50;;;;;;;;;;5033782;28;20379;-87
2021/03/16 04:59:01;;;;;;;8.10;4.32;;;;;;;;;;5033710;28;20863;-83
2021/03/16 05:01:27;;;;;;;7.45;4.40;;;;;;;;;;5033361;28;20377;-85
2021/03/16 05:03:54;;;;;;;8.10;4.30;;;;;;;;;;5016044;28;20388;-86
2021/03/16 05:06:20;;;;;;;9.60;5.05;;;;;;;;;;5016035;28;20447;-85
2021/03/16 05:08:46;;;;;;;8.40;4.38;;;;;;;;;;5015672;28;20401;-85
2021/03/16 05:11:12;;;;;;;7.55;4.00;;;;;;;;;;5015571;28;20974;-83
2021/03/16 05:13:38;;;;;;;6.77;4.00;;;;;;;;;;5015738;28;20736;-83
2021/03/16 05:16:04;;;;;;;7.95;4.25;;;;;;;;;;5015553;28;20391;-85
2021/03/16 05:18:30;;;;;;;5.97;4.40;;;;;;;;;;5015714;28;20867;-86
2021/03/16 05:20:56;;;;;;;8.82;4.20;;;;;;;;;;5033474;28;20384;-86
2021/03/16 05:23:22;;;;;;;9.23;4.30;;;;;;;;;;5015925;28;20369;-84
2021/03/16 05:25:48;;;;;;;6.95;4.30;;;;;;;;;;5015598;28;20775;-87
2021/03/16 05:28:14;;;;;;;7.43;4.20;;;;;;;;;;5033075;28;20402;-86
2021/03/16 05:30:40;;;;;;;5.72;3.90;;;;;;;;;;5015237;28;20381;-87
2021/03/16 05:33:06;;;;;;;9.32;4.90;;;;;;;;;;5015493;28;20431;-87
2021/03/16 05:35:32;;;;;;;7.63;4.32;;;;;;;;;;5033083;28;20377;-86
2021/03/16 05:37:58;;;;;;;7.13;4.23;;;;;;;;;;5015215;28;20384;-85
2021/03/16 05:40:25;;;;;;;8.05;4.03;;;;;;;;;;5033030;28;20384;-85
2021/03/16 05:42:51;;;;;;;8.88;4.32;;;;;;;;;;5032075;28;20856;-86
2021/03/16 05:45:18;;;;;;;8.45;4.68;;;;;;;;;;5033059;28;20488;-85
2021/03/16 05:47:45;;;;;;;10.27;4.50;;;;;;;;;;5032627;28;20891;-82
2021/03/16 05:50:11;;;;;;;6.05;4.13;;;;;;;;;;5015083;28;20382;-85
2021/03/16 05:52:37;;;;;;;7.20;4.13;;;;;;;;;;5032590;28;20400;-87
2021/03/16 05:55:04;;;;;;;9.40;5.00;;;;;;;;;;5014891;28;20709;-85
2021/03/16 05:57:30;;;;;;;6.03;4.32;;;;;;;;;;5014840;28;20385;-83
2021/03/16 05:59:56;;;;;;;7.47;4.68;;;;;;;;;;5032518;28;20377;-85
2021/03/16 06:02:22;;;;;;;8.07;4.57;;;;;;;;;;5032683;28;20415;-85
2021/03/16 06:04:48;;;;;;;8.40;5.03;;;;;;;;;;5014777;28;20433;-85
2021/03/16 06:07:15;;;;;;;8.07;4.50;;;;;;;;;;5014608;28;20378;-86
2021/03/16 06:09:42;;;;;;;7.00;4.18;;;;;;;;;;5014517;28;20390;-86
2021/03/16 06:12:08;;;;;;;9.55;4.38;;;;;;;;;;5032261;28;20408;-86
2021/03/16 06:14:36;;;;;;;7.03;4.00;;;;;;;;;;5013852;28;20484;-85
2021/03/16 06:17:02;;;;;;;6.43;4.20;;;;;;;;;;5007575;28;20383;-86
2021/03/16 06:19:35;;;;;;;6.63;4.15;;;;;;;;;;4994849;28;20446;-84
2021/03/16 06:22:03;;;;;;;6.70;4.43;;;;;;;;;;5012173;28;20477;-84
2021/03/16 06:24:29;;;;;;;8.65;4.60;;;;;;;;;;5024337;28;20378;-86
2021/03/16 06:26:55;;;;;;;7.82;4.15;;;;;;;;;;5025723;28;20457;-85
2021/03/16 06:29:22;;;;;;;7.05;4.63;;;;;;;;;;5013592;28;20412;-83
2021/03/16 06:31:48;;;;;;;7.55;4.20;;;;;;;;;;5036026;28;20383;-83
2021/03/16 06:34:22;;;;;;;6.63;4.32;;;;;;;;;;5017530;28;20412;-85
2021/03/16 06:36:50;;;;;;;8.40;4.82;;;;;;;;;;5019205;28;20382;-85
2021/03/16 06:39:19;;;;;;;6.43;4.70;;;;;;;;;;5017402;28;20421;-87
2021/03/16 06:41:46;;;;;;;8.68;4.32;;;;;;;;;;5013824;28;20448;-87
2021/03/16 06:44:16;;;;;;;9.25;4.50;;;;;;;;;;5037739;28;20406;-83
2021/03/16 06:46:43;;;;;;;6.67;4.23;;;;;;;;;;5014544;28;20382;-83
2021/03/16 06:49:15;;;;;;;6.10;4.27;;;;;;;;;;5035882;28;20413;-85
2021/03/16 06:51:41;;;;;;;9.23;4.47;;;;;;;;;;5037487;28;20395;-82
2021/03/16 06:54:08;;;;;;;6.88;4.50;;;;;;;;;;5018874;28;20378;-84
2021/03/16 06:56:35;;;;;;;11.23;5.05;;;;;;;;;;5038319;28;20373;-85
2021/03/16 06:59:01;;;;;;;7.50;4.75;;;;;;;;;;5037172;28;20470;-85
2021/03/16 07:01:34;;;;;;;7.95;4.32;;;;;;;;;;5037848;28;20369;-85
2021/03/16 07:04:12;;;;;;;10.65;4.90;;;;;;;;;;5038063;28;20934;-83
2021/03/16 07:06:40;;;;;;;9.37;4.70;;;;;;;;;;5015596;28;20715;-85
2021/03/16 07:09:06;;;;;;;7.85;5.10;;;;;;;;;;5016684;28;20486;-83
2021/03/16 07:11:35;;;;;;;8.93;5.10;;;;;;;;;;5019920;28;20974;-83
2021/03/16 07:14:03;;;;;;;9.70;4.93;;;;;;;;;;5000072;28;20384;-85
2021/03/16 07:16:30;;;;;;;7.90;4.43;;;;;;;;;;5037468;28;20953;-84
2021/03/16 07:18:56;;;;;;;8.57;4.70;;;;;;;;;;5018997;28;20896;-84
2021/03/16 07:21:29;;;;;;;7.85;4.60;;;;;;;;;;5019927;28;20389;-84
2021/03/16 07:24:02;;;;;;;8.43;4.30;;;;;;;;;;5019139;28;20904;-83
2021/03/16 07:26:29;;;;;;;7.23;4.30;;;;;;;;;;5037377;28;20405;-85
2021/03/16 07:28:56;;;;;;;9.27;4.47;;;;;;;;;;5015301;28;20429;-85
2021/03/16 07:31:23;;;;;;;8.48;4.60;;;;;;;;;;5016878;28;20383;-86
2021/03/16 07:33:51;;;;;;;8.93;4.07;;;;;;;;;;5037149;28;20433;-86
2021/03/16 07:36:17;;;;;;;8.07;4.47;;;;;;;;;;5037387;28;21710;-85
2021/03/16 07:38:43;;;;;;;6.25;4.60;;;;;;;;;;5037349;28;20372;-85
2021/03/16 07:41:10;;;;;;;6.77;4.27;;;;;;;;;;5018688;28;21175;-85
2021/03/16 07:43:38;;;;;;;6.88;4.38;;;;;;;;;;5037408;28;20350;-87
2021/03/16 07:46:10;;;;;;;8.63;4.45;;;;;;;;;;5011930;28;20382;-86
2021/03/16 07:48:41;;;;;;;8.07;4.68;;;;;;;;;;5037063;28;20413;-87
2021/03/16 07:51:17;;;;;;;7.13;4.50;;;;;;;;;;5036924;28;20465;-84
2021/03/16 07:53:53;;;;;;;6.97;4.15;;;;;;;;;;5037187;28;20383;-86
2021/03/16 07:56:23;;;;;;;7.10;4.55;;;;;;;;;;5037278;28;20380;-84
2021/03/16 07:58:49;;;;;;;7.82;4.18;;;;;;;;;;5017143;28;20387;-84
2021/03/16 08:01:15;;;;;;;7.93;4.13;;;;;;;;;;5017838;28;20444;-86
2021/03/16 08:03:41;;;;;;;7.45;4.15;;;;;;;;;;5036961;28;20377;-84
2021/03/16 08:06:07;;;;;;;6.15;4.20;;;;;;;;;;5019331;28;20436;-85
2021/03/16 08:08:41;;;;;;;5.78;3.75;;;;;;;;;;5018891;28;20405;-85
2021/03/16 08:11:13;;;;;;;5.68;4.03;;;;;;;;;;5037174;28;20845;-84
2021/03/16 08:13:39;;;;;;;5.87;3.87;;;;;;;;;;5017897;28;20407;-86
2021/03/16 08:16:12;;;;;;;7.45;4.03;;;;;;;;;;5037183;28;20464;-84
2021/03/16 08:18:39;;;;;;;6.25;3.90;;;;;;;;;;5037383;28;20483;-86
2021/03/16 08:21:14;;;;;;;6.55;3.60;;;;;;;;;;5015924;28;20364;-87
2021/03/16 08:23:41;;;;;;;6.47;3.63;;;;;;;;;;5015850;28;20395;-86
2021/03/16 08:26:07;;;;;;;7.25;3.60;;;;;;;;;;5016230;28;20371;-87
2021/03/16 08:28:34;;;;;;;6.30;3.50;;;;;;;;;;5036540;28;20433;-82
2021/03/16 08:31:00;;;;;;;7.53;3.90;;;;;;;;;;5037453;28;20366;-87
2021/03/16 08:33:27;;;;;;;5.85;3.50;;;;;;;;;;5019532;28;20471;-82
2021/03/16 08:35:54;;;;;;;6.32;3.70;;;;;;;;;;5037546;28;20370;-85
2021/03/16 08:38:27;;;;;;;6.63;3.72;;;;;;;;;;5019618;28;20373;-87
2021/03/16 08:41:13;;;;;;;5.25;3.42;;;;;;;;;;5016888;28;20521;-87
2021/03/16 08:43:41;;;;;;;6.37;3.37;;;;;;;;;;5034516;28;20478;-84
2021/03/16 08:46:10;;;;;;;8.77;3.85;;;;;;;;;;5015170;28;20483;-88
2021/03/16 08:48:36;;;;;;;6.75;3.78;;;;;;;;;;5036567;28;20495;-85
2021/03/16 08:51:02;;;;;;;7.35;3.30;;;;;;;;;;5015349;28;20552;-85
2021/03/16 08:53:28;;;;;;;6.30;3.70;;;;;;;;;;5017948;28;20859;-87
2021/03/16 08:55:55;;;;;;;5.67;3.17;;;;;;;;;;5016033;28;20911;-83
2021/03/16 08:58:22;;;;;;;5.78;3.20;;;;;;;;;;5036606;28;20440;-88
2021/03/16 09:00:48;;;;;;;6.90;3.28;;;;;;;;;;5016999;28;20484;-83
2021/03/16 09:03:14;;;;;;;6.35;3.45;;;;;;;;;;5036781;28;20463;-86
2021/03/16 09:05:41;;;;;;;5.45;2.80;;;;;;;;;;5035942;28;20376;-83
2021/03/16 09:08:09;;;;;;;5.00;3.13;;;;;;;;;;5017918;28;20878;-87
2021/03/16 09:10:35;;;;;;;5.57;3.00;;;;;;;;;;5016080;28;20480;-83
2021/03/16 09:13:01;;;;;;;4.85;2.92;;;;;;;;;;5016676;28;20434;-84
2021/03/16 09:15:29;;;;;;;5.03;2.75;;;;;;;;;;5035801;28;20987;-82
2021/03/16 09:17:57;;;;;;;3.72;2.90;;;;;;;;;;5035023;28;20705;-83
2021/03/16 09:20:26;;;;;;;4.78;2.80;;;;;;;;;;5038015;28;20419;-82
2021/03/16 09:22:54;;;;;;;4.37;2.60;;;;;;;;;;5017894;28;20402;-86
2021/03/16 09:25:24;;;;;;;4.55;2.50;;;;;;;;;;5018710;28;20957;-83
2021/03/16 09:27:50;;;;;;;5.70;2.40;;;;;;;;;;5037937;28;20938;-83
2021/03/16 09:30:17;;;;;;;4.20;2.60;;;;;;;;;;5015831;28;20826;-84
2021/03/16 09:32:45;;;;;;;5.40;2.80;;;;;;;;;;5035207;28;20397;-85
2021/03/16 09:35:13;;;;;;;3.95;2.22;;;;;;;;;;5018671;28;20381;-81
2021/03/16 09:37:43;;;;;;;3.63;2.33;;;;;;;;;;5017033;28;20438;-81
2021/03/16 09:40:09;;;;;;;4.00;2.17;;;;;;;;;;5012594;28;20873;-81
2021/03/16 09:42:35;;;;;;;3.17;2.00;;;;;;;;;;5016635;28;20744;-80
2021/03/16 09:45:03;;;;;;;3.72;2.30;;;;;;;;;;5010485;28;20465;-80
2021/03/16 09:47:30;;;;;;;3.95;2.20;;;;;;;;;;5010983;28;20743;-81
2021/03/16 09:50:06;;;;;;;3.25;2.10;;;;;;;;;;5025933;28;20370;-80
2021/03/16 09:52:32;;;;;;;4.15;2.03;;;;;;;;;;4999549;28;20396;-81
2021/03/16 09:55:00;;;;;;;2.83;2.05;;;;;;;;;;5008018;28;20392;-81
2021/03/16 09:57:31;;;;;;;3.95;2.03;;;;;;;;;;5006785;28;20412;-81
2021/03/16 09:59:57;;;;;;;3.67;2.03;;;;;;;;;;5005414;28;20390;-82
2021/03/16 10:02:31;;;;;;;3.33;2.28;;;;;;;;;;5006864;28;20421;-81
2021/03/16 10:05:06;;;;;;;4.13;2.08;;;;;;;;;;5003407;28;20481;-81
2021/03/16 10:07:34;;;;;;;4.03;2.30;;;;;;;;;;5010736;28;20563;-80
2021/03/16 10:10:11;;;;;;;3.63;2.00;;;;;;;;;;5007215;28;20423;-82
2021/03/16 10:12:37;;;;;;;4.35;2.35;;;;;;;;;;5026514;28;20397;-81
2021/03/16 10:15:04;;;;;;;2.67;2.05;;;;;;;;;;5021252;28;20392;-81
2021/03/16 10:17:31;;;;;;;4.00;2.00;;;;;;;;;;5004186;28;20475;-80
2021/03/16 10:20:01;;;;;;;3.35;1.90;;;;;;;;;;5028001;28;20377;-81
2021/03/16 10:22:28;;;;;;;3.03;2.10;;;;;;;;;;5028460;28;20477;-81
2021/03/16 10:24:58;;;;;;;3.80;1.90;;;8.00;99.90;;;;;;5019317;28;20392;-83
2021/03/16 10:27:29;;;;;;;2.92;2.10;;;8.10;99.90;;;;;;5015994;28;20477;-82
2021/03/16 10:29:55;;;;;;;3.85;2.30;;;8.00;99.90;;;;;;5031614;28;20385;-82
2021/03/16 10:32:21;;;;;;;4.38;2.47;;;8.10;99.90;;;;;;5026110;28;20468;-82
2021/03/16 10:34:47;;;;;;;3.47;2.03;;;8.30;99.90;;;;;;5023440;28;22415;-82
2021/03/16 10:37:17;;;;;;;4.55;2.58;;;8.20;99.90;;;;;;5029830;28;20407;-83
2021/03/16 10:39:43;;;;;;;3.65;2.90;;;8.00;99.90;;;;;;5032320;28;20383;-87
2021/03/16 10:42:09;;;;;;;4.78;3.08;;;8.20;99.90;;;;;;5024368;28;20415;-87
2021/03/16 10:44:38;;;;;;;5.18;3.20;;;8.00;99.90;;;;;;5015743;28;20512;-85
2021/03/16 10:47:04;;;;;;;7.27;4.23;;;8.00;99.90;;;;;;5015976;28;20399;-85
2021/03/16 10:49:30;;;;;;;5.53;4.20;;;8.10;99.90;;;;;;5034996;28;20409;-86
2021/03/16 10:51:55;;;;;;;6.13;4.85;;;8.30;99.90;;;;;;5016411;28;20388;-88
2021/03/16 10:54:21;;;;;;;7.18;5.03;;;8.00;99.90;;;;;;5014652;28;20382;-87
2021/03/16 10:56:48;;;;;;;6.67;5.03;;;8.10;99.90;;;;;;5015256;28;20399;-85
2021/03/16 10:59:13;;;;;;;10.60;5.88;;;8.10;99.90;;;;;;5035005;28;20385;-87
2021/03/16 11:01:42;;;;;;;9.25;6.30;;;8.30;99.90;;;;;;5014624;28;20385;-86
2021/03/16 11:04:09;;;;;;;9.80;7.03;;;8.40;99.90;;;;;;5015178;28;20392;-85
2021/03/16 11:06:34;;;;;;;8.13;6.82;;;8.40;99.90;;;;;;5015703;28;21226;-85
2021/03/16 11:09:00;;;;;;;10.20;7.23;;;8.40;99.90;;;;;;5016241;28;20460;-86
2021/03/16 11:11:26;;;;;;;9.93;7.43;;;8.30;99.90;;;;;;5014138;28;20985;-87
2021/03/16 11:13:51;;;;;;;9.68;7.28;;;8.20;99.90;;;;;;5016791;28;20410;-86
2021/03/16 11:16:17;;;;;;;10.73;7.97;;;8.20;99.90;;;;;;5031484;28;20432;-85
2021/03/16 11:18:43;;;;;;;10.67;7.97;;;8.40;99.90;;;;;;5013940;28;20385;-86
2021/03/16 11:21:08;;;;;;;10.43;6.82;;;8.60;99.90;;;;;;5016629;28;20442;-87
2021/03/16 11:23:34;;;;;;;10.98;7.28;;;8.50;99.90;;;;;;5015158;28;20397;-87
2021/03/16 11:25:59;;;;;;;12.27;7.57;;;8.50;99.90;;;;;;5032383;28;20428;-86
2021/03/16 11:28:25;;;;;;;11.33;7.60;;;8.10;99.90;;;;;;5033282;28;20405;-84
2021/03/16 11:30:50;;;;;;;10.50;8.60;;;8.00;99.90;;;;;;5035228;28;20789;-82
2021/03/16 11:33:16;;;;;;;14.03;8.43;;;8.10;99.90;;;;;;5011369;28;20909;-82
2021/03/16 11:35:42;;;;;;;11.57;8.07;;;8.30;99.90;;;;;;5033922;28;20428;-83
2021/03/16 11:38:08;;;;;;;12.32;8.43;;;8.50;99.90;;;;;;5012074;28;20944;-82
2021/03/16 11:40:33;;;;;;;11.33;8.40;;;8.70;99.90;;;;;;5012526;28;20426;-82
2021/03/16 11:42:59;;;;;;;11.45;8.05;;;8.40;99.90;;;;;;5033118;28;20455;-82
2021/03/16 11:45:25;;;;;;;12.15;7.35;;;8.50;99.90;;;;;;5033588;28;20566;-82
2021/03/16 11:47:50;;;;;;;10.13;7.43;;;8.40;99.90;;;;;;5033476;28;20411;-82
2021/03/16 11:50:16;;;;;;;11.68;7.70;;;8.40;99.90;;;;;;5032837;28;20392;-83
2021/03/16 11:52:42;;;;;;;11.82;7.45;;;8.50;99.90;;;;;;5033375;28;20838;-82
2021/03/16 11:55:08;;;;;;;10.87;7.30;;;8.60;99.90;;;;;;5010885;28;20988;-82
2021/03/16 11:57:34;;;;;;;10.35;6.88;;;8.40;99.90;;;;;;5011842;28;20387;-83
2021/03/16 12:00:00;;;;;;;13.73;7.43;;;8.30;99.90;;;;;;5033086;28;20388;-83
2021/03/16 12:02:25;;;;;;;11.68;8.02;;;8.40;99.90;;;;;;5033899;28;20388;-84
2021/03/16 12:04:51;;;;;;;12.98;7.28;;;8.70;99.90;;;;;;5033452;28;20376;-83
2021/03/16 12:07:17;;;;;;;6.10;4.67;;;8.60;99.90;;;;;;5033488;28;20482;-81
2021/03/16 12:09:42;;;;;;;6.00;4.20;;;8.50;99.90;;;;;;5011614;28;20452;-83
2021/03/16 12:12:08;;;;;;;5.55;3.90;;;8.30;99.90;;;;;;5033396;28;20489;-83
2021/03/16 12:14:34;;;;;;;4.72;3.55;;;8.20;99.90;;;;;;5013208;28;20875;-84
2021/03/16 12:17:01;;;;;;;4.57;3.40;;;8.30;99.90;;;;;;5015852;28;20443;-84
2021/03/16 12:19:26;;;;;;;6.13;4.00;;;8.40;99.90;;;;;;5033257;28;20396;-82
2021/03/16 12:21:52;;;;;;;6.10;3.33;;;8.50;99.90;;;;;;5033662;28;20385;-84
2021/03/16 12:24:18;;;;;;;5.83;3.70;;;8.60;99.90;;;;;;5033948;28;20389;-83
2021/03/16 12:26:44;;;;;;;5.13;3.58;;;8.50;99.90;;;;;;5032410;28;20396;-82
2021/03/16 12:29:09;;;;;;;4.85;3.00;;;8.50;99.90;;;;;;5009798;28;20414;-83
2021/03/16 12:31:35;;;;;;;4.28;2.72;;;8.40;99.90;;;;;;5027082;28;20394;-82
2021/03/16 12:34:01;;;;;;;5.00;2.95;;;8.30;99.90;;;;;;5033145;28;20734;-82
2021/03/16 12:36:27;;;;;;;4.67;2.97;;;8.10;99.90;;;;;;5032461;28;20381;-87
2021/03/16 12:38:52;;;;;;;4.53;2.90;;;8.10;99.90;;;;;;5015850;28;20383;-86
2021/03/16 12:41:18;;;;;;;4.20;2.70;;;8.10;99.90;;;;;;5016398;28;20378;-86
2021/03/16 12:43:43;;;;;;;4.50;2.65;;;8.20;99.90;;;;;;5035033;28;20385;-85
2021/03/16 12:46:09;;;;;;;4.37;2.90;;;8.20;99.90;;;;;;5035015;28;20460;-86
2021/03/16 12:48:35;;;;;;;2.93;2.40;;;8.50;99.90;;;;;;5035215;28;20460;-86
2021/03/16 12:51:00;;;;;;;2.65;2.00;;;8.80;99.90;;;;;;5032241;28;20384;-85
2021/03/16 12:53:26;;;;;;;4.72;2.67;;;9.20;99.90;;;;;;5016955;28;20837;-85
2021/03/16 12:55:51;;;;;;;3.40;2.60;;;9.20;99.90;;;;;;5039220;28;20408;-84
2021/03/16 12:58:17;;;;;;;5.00;2.40;;;8.90;99.90;;;;;;5039224;28;20383;-88
2021/03/16 13:00:43;;;;;;;3.25;2.13;;;9.00;99.90;;;;;;5038700;28;20393;-90
2021/03/16 13:03:08;;;;;;;3.20;2.00;;;9.10;99.90;;;;;;5020727;28;20389;-85
2021/03/16 13:05:34;;;;;;;5.68;2.20;;;8.90;99.90;;;;;;5038454;28;20384;-86
2021/03/16 13:08:00;;;;;;;3.53;2.30;;;8.80;99.90;;;;;;5038357;28;20409;-83
2021/03/16 13:10:25;;;;;;;3.13;2.20;;;8.70;99.90;;;;;;5015490;28;20399;-87
2021/03/16 13:12:51;;;;;;;3.77;2.60;;;8.70;99.90;;;;;;5034617;28;21231;-88
2021/03/16 13:15:17;;;;;;;4.63;2.73;;;8.60;99.90;;;;;;5038459;28;20770;-89
2021/03/16 13:17:42;;;;;;;4.47;2.70;;;8.40;99.90;;;;;;5018593;28;20484;-87
2021/03/16 13:20:09;;;;;;;4.10;2.80;;;8.30;99.90;;;;;;5019956;28;20511;-86
2021/03/16 13:22:35;;;;;;;4.40;2.80;;;8.20;99.90;;;;;;5019993;28;20410;-87
2021/03/16 13:25:03;;;;;;;5.72;3.40;;;8.10;99.90;;;;;;5038986;28;20388;-88
2021/03/16 13:27:29;;;;;;;4.60;3.03;;;8.00;99.90;;;;;;5037863;28;20385;-88
2021/03/16 13:29:54;;;;;;;5.18;2.95;;;8.10;99.90;;;;;;5034205;28;20446;-91
2021/03/16 13:32:20;;;;;;;4.77;3.03;;;8.10;99.90;;;;;;5039679;28;20376;-89
2021/03/16 13:34:48;;;;;;;4.65;3.00;;;8.30;99.90;;;;;;5037709;28;20395;-84
2021/03/16 13:37:15;;;;;;;6.70;3.08;;;8.30;99.90;;;;;;5016183;28;20401;-87
2021/03/16 13:39:41;;;;;;;4.75;3.03;;;8.10;99.90;;;;;;5018230;28;20404;-88
2021/03/16 13:42:08;;;;;;;3.85;2.90;;;7.90;99.90;;;;;;5038438;28;20480;-86
2021/03/16 13:44:38;;;;;;;3.40;2.60;;;8.00;99.90;;;;;;5017442;28;20429;-88
2021/03/16 13:47:03;;;;;;;3.83;3.10;;;8.00;99.90;;;;;;5016923;28;20380;-84
2021/03/16 13:49:29;;;;;;;4.40;3.10;;;7.90;99.90;;;;;;5037790;28;20416;-84
2021/03/16 13:51:55;;;;;;;5.75;3.30;;;7.80;99.90;;;;;;5039673;28;20396;-84
2021/03/16 13:54:21;;;;;;;5.60;2.90;;;7.80;99.90;;;;;;5009633;28;20476;-85
2021/03/16 13:56:47;;;;;;;3.80;3.03;;;7.80;99.90;;;;;;5017582;28;20424;-85
2021/03/16 13:59:13;;;;;;;4.93;3.00;;;8.00;99.90;;;;;;5028484;28;20769;-83
2021/03/16 14:01:38;;;;;;;3.55;2.90;;;8.10;99.90;;;;;;5010704;28;20431;-85
2021/03/16 14:04:04;;;;;;;5.63;2.90;;;8.20;99.90;;;;;;4993864;28;20457;-92
2021/03/16 14:06:31;;;;;;;4.10;2.92;;;8.20;99.90;;;;;;4997320;28;20504;-86
2021/03/16 14:08:57;;;;;;;3.90;2.55;;;8.20;99.90;;;;;;5016628;28;20415;-89
2021/03/16 14:11:24;;;;;;;3.97;2.60;;;8.20;99.90;;;;;;5033264;28;20434;-85
2021/03/16 14:13:54;;;;;;;3.73;2.37;;;8.00;99.90;;;;;;5020437;28;20389;-87
2021/03/16 14:16:21;;;;;;;3.80;2.60;;;8.00;99.90;;;;;;5036517;28;20390;-86
2021/03/16 14:18:46;;;;;;;3.33;2.40;;;8.00;99.90;;;;;;5018345;28;20857;-86
2021/03/16 14:21:12;;;;;;;3.47;2.10;;;8.10;99.90;;;;;;5018082;28;20387;-86
2021/03/16 14:23:38;;;;;;;4.03;2.50;;;8.20;99.90;;;;;;5016632;28;20418;-87